Terminal Aerodrome Forecast
Issued by NWS Wilmington, OH

Current Version | Previous Version | Graphics & Text | Print | Product List | Glossary On
Versions: 1 2 3 4 5 6 7 8 9 10 11 12 13 14 15 16 17
735
FTUS41 KILN 151731
TAFCMH
TAF
KCMH 151731Z 1518/1618 17010KT 1SM -SN OVC012
      TEMPO 1522/1601 OVC008
     FM160400 24006KT P6SM VCSH OVC022
     FM160600 27007KT P6SM OVC022
     FM160900 27007KT P6SM SCT022 BKN050
     FM161500 26007KT P6SM BKN022=

USA.gov is the U.S. government's official web portal to all federal, state and local government web resources and services.